sensor_id;sensor_type;location;lat;lon;timestamp;P1;durP1;ratioP1;P2;durP2;ratioP2
8592;SDS011;4334;49.982;8.398;2023-07-09T00:01:44;2.50;;;2.17;;
8592;SDS011;4334;49.982;8.398;2023-07-09T00:04:12;4.47;;;2.63;;
8592;SDS011;4334;49.982;8.398;2023-07-09T00:06:40;3.70;;;2.70;;
8592;SDS011;4334;49.982;8.398;2023-07-09T00:09:10;2.58;;;2.33;;
8592;SDS011;4334;49.982;8.398;2023-07-09T00:11:39;5.57;;;2.60;;
8592;SDS011;4334;49.982;8.398;2023-07-09T00:14:06;9.05;;;2.63;;
8592;SDS011;4334;49.982;8.398;2023-07-09T00:16:34;5.57;;;2.57;;
8592;SDS011;4334;49.982;8.398;2023-07-09T00:19:02;4.28;;;3.00;;
8592;SDS011;4334;49.982;8.398;2023-07-09T00:21:30;3.83;;;2.90;;
8592;SDS011;4334;49.982;8.398;2023-07-09T00:23:59;5.10;;;3.07;;
8592;SDS011;4334;49.982;8.398;2023-07-09T00:26:29;3.00;;;2.50;;
8592;SDS011;4334;49.982;8.398;2023-07-09T00:28:57;2.83;;;2.30;;
8592;SDS011;4334;49.982;8.398;2023-07-09T00:31:23;3.90;;;2.78;;
8592;SDS011;4334;49.982;8.398;2023-07-09T00:33:51;4.17;;;2.43;;
8592;SDS011;4334;49.982;8.398;2023-07-09T00:36:18;3.43;;;2.50;;
8592;SDS011;4334;49.982;8.398;2023-07-09T00:38:52;6.60;;;2.43;;
8592;SDS011;4334;49.982;8.398;2023-07-09T00:41:20;7.57;;;3.05;;
8592;SDS011;4334;49.982;8.398;2023-07-09T00:43:49;7.47;;;2.83;;
8592;SDS011;4334;49.982;8.398;2023-07-09T00:47:07;4.97;;;2.60;;
8592;SDS011;4334;49.982;8.398;2023-07-09T00:49:29;3.67;;;2.43;;
8592;SDS011;4334;49.982;8.398;2023-07-09T00:51:59;4.00;;;2.50;;
8592;SDS011;4334;49.982;8.398;2023-07-09T00:54:32;4.57;;;2.93;;
8592;SDS011;4334;49.982;8.398;2023-07-09T00:57:04;6.82;;;3.55;;
8592;SDS011;4334;49.982;8.398;2023-07-09T00:59:35;5.77;;;3.67;;
8592;SDS011;4334;49.982;8.398;2023-07-09T01:02:04;8.50;;;3.22;;
8592;SDS011;4334;49.982;8.398;2023-07-09T01:04:32;3.53;;;2.97;;
8592;SDS011;4334;49.982;8.398;2023-07-09T01:07:01;4.22;;;3.22;;
8592;SDS011;4334;49.982;8.398;2023-07-09T01:09:28;5.43;;;3.27;;
8592;SDS011;4334;49.982;8.398;2023-07-09T01:12:00;4.93;;;3.23;;
8592;SDS011;4334;49.982;8.398;2023-07-09T01:14:29;3.23;;;2.73;;
8592;SDS011;4334;49.982;8.398;2023-07-09T01:16:57;5.33;;;2.90;;
8592;SDS011;4334;49.982;8.398;2023-07-09T01:19:28;3.83;;;2.97;;
8592;SDS011;4334;49.982;8.398;2023-07-09T01:21:59;4.37;;;2.93;;
8592;SDS011;4334;49.982;8.398;2023-07-09T01:27:18;4.20;;;3.08;;
8592;SDS011;4334;49.982;8.398;2023-07-09T01:29:47;7.60;;;3.30;;
8592;SDS011;4334;49.982;8.398;2023-07-09T01:32:14;3.92;;;3.00;;
8592;SDS011;4334;49.982;8.398;2023-07-09T01:34:44;4.43;;;3.40;;
8592;SDS011;4334;49.982;8.398;2023-07-09T01:37:14;4.43;;;2.70;;
8592;SDS011;4334;49.982;8.398;2023-07-09T01:39:41;4.13;;;3.00;;
8592;SDS011;4334;49.982;8.398;2023-07-09T01:42:08;3.50;;;3.00;;
8592;SDS011;4334;49.982;8.398;2023-07-09T01:44:35;7.07;;;3.13;;
8592;SDS011;4334;49.982;8.398;2023-07-09T01:47:03;4.40;;;3.10;;
8592;SDS011;4334;49.982;8.398;2023-07-09T01:49:31;5.50;;;3.20;;
8592;SDS011;4334;49.982;8.398;2023-07-09T01:51:59;4.55;;;2.90;;
8592;SDS011;4334;49.982;8.398;2023-07-09T01:54:29;4.50;;;3.33;;
8592;SDS011;4334;49.982;8.398;2023-07-09T01:57:11;3.88;;;2.50;;
8592;SDS011;4334;49.982;8.398;2023-07-09T01:59:40;6.57;;;2.97;;
8592;SDS011;4334;49.982;8.398;2023-07-09T02:02:07;4.57;;;2.92;;
8592;SDS011;4334;49.982;8.398;2023-07-09T02:04:34;4.03;;;2.90;;
8592;SDS011;4334;49.982;8.398;2023-07-09T02:07:01;5.40;;;3.00;;
8592;SDS011;4334;49.982;8.398;2023-07-09T02:09:29;3.07;;;2.50;;
8592;SDS011;4334;49.982;8.398;2023-07-09T02:11:55;3.13;;;2.50;;
8592;SDS011;4334;49.982;8.398;2023-07-09T02:14:22;7.53;;;2.90;;
8592;SDS011;4334;49.982;8.398;2023-07-09T02:16:49;3.97;;;2.87;;
8592;SDS011;4334;49.982;8.398;2023-07-09T02:19:17;5.55;;;3.25;;
8592;SDS011;4334;49.982;8.398;2023-07-09T02:21:43;3.73;;;2.77;;
8592;SDS011;4334;49.982;8.398;2023-07-09T02:24:10;4.37;;;3.43;;
8592;SDS011;4334;49.982;8.398;2023-07-09T02:26:38;4.60;;;3.17;;
8592;SDS011;4334;49.982;8.398;2023-07-09T02:29:05;6.57;;;3.33;;
8592;SDS011;4334;49.982;8.398;2023-07-09T02:31:32;7.63;;;3.37;;
8592;SDS011;4334;49.982;8.398;2023-07-09T02:33:59;5.00;;;3.23;;
8592;SDS011;4334;49.982;8.398;2023-07-09T02:36:28;10.30;;;3.40;;
8592;SDS011;4334;49.982;8.398;2023-07-09T02:38:54;4.07;;;3.13;;
8592;SDS011;4334;49.982;8.398;2023-07-09T02:41:21;4.87;;;3.10;;
8592;SDS011;4334;49.982;8.398;2023-07-09T02:43:49;8.67;;;4.17;;
8592;SDS011;4334;49.982;8.398;2023-07-09T02:46:16;4.13;;;3.40;;
8592;SDS011;4334;49.982;8.398;2023-07-09T02:48:42;7.97;;;3.30;;
8592;SDS011;4334;49.982;8.398;2023-07-09T02:51:09;7.23;;;3.40;;
8592;SDS011;4334;49.982;8.398;2023-07-09T02:53:36;5.57;;;3.53;;
8592;SDS011;4334;49.982;8.398;2023-07-09T02:56:03;5.00;;;3.50;;
8592;SDS011;4334;49.982;8.398;2023-07-09T02:58:29;5.63;;;3.63;;
8592;SDS011;4334;49.982;8.398;2023-07-09T03:00:58;4.93;;;3.37;;
8592;SDS011;4334;49.982;8.398;2023-07-09T03:03:32;7.17;;;3.60;;
8592;SDS011;4334;49.982;8.398;2023-07-09T03:08:45;6.10;;;3.73;;
8592;SDS011;4334;49.982;8.398;2023-07-09T03:11:27;4.03;;;3.10;;
8592;SDS011;4334;49.982;8.398;2023-07-09T03:14:00;4.00;;;3.23;;
8592;SDS011;4334;49.982;8.398;2023-07-09T03:19:27;4.90;;;3.30;;
8592;SDS011;4334;49.982;8.398;2023-07-09T03:22:05;8.43;;;3.67;;
8592;SDS011;4334;49.982;8.398;2023-07-09T03:24:54;7.67;;;3.60;;
8592;SDS011;4334;49.982;8.398;2023-07-09T03:27:25;6.53;;;3.77;;
8592;SDS011;4334;49.982;8.398;2023-07-09T03:30:14;6.10;;;3.90;;
8592;SDS011;4334;49.982;8.398;2023-07-09T03:32:54;8.83;;;4.37;;
8592;SDS011;4334;49.982;8.398;2023-07-09T03:38:24;9.47;;;4.33;;
8592;SDS011;4334;49.982;8.398;2023-07-09T03:40:53;5.13;;;4.17;;
8592;SDS011;4334;49.982;8.398;2023-07-09T03:43:31;4.63;;;3.97;;
8592;SDS011;4334;49.982;8.398;2023-07-09T03:46:18;6.33;;;3.53;;
8592;SDS011;4334;49.982;8.398;2023-07-09T03:48:49;4.97;;;3.37;;
8592;SDS011;4334;49.982;8.398;2023-07-09T03:51:25;4.07;;;3.33;;
8592;SDS011;4334;49.982;8.398;2023-07-09T03:53:57;5.50;;;4.07;;
8592;SDS011;4334;49.982;8.398;2023-07-09T03:56:28;4.60;;;3.73;;
8592;SDS011;4334;49.982;8.398;2023-07-09T03:58:55;8.03;;;3.90;;
8592;SDS011;4334;49.982;8.398;2023-07-09T04:01:22;6.27;;;3.97;;
8592;SDS011;4334;49.982;8.398;2023-07-09T04:03:49;7.37;;;4.33;;
8592;SDS011;4334;49.982;8.398;2023-07-09T04:06:16;5.27;;;4.23;;
8592;SDS011;4334;49.982;8.398;2023-07-09T04:08:42;7.23;;;4.33;;
8592;SDS011;4334;49.982;8.398;2023-07-09T04:11:10;7.07;;;4.33;;
8592;SDS011;4334;49.982;8.398;2023-07-09T04:13:37;10.37;;;4.73;;
8592;SDS011;4334;49.982;8.398;2023-07-09T04:16:04;13.37;;;5.07;;
8592;SDS011;4334;49.982;8.398;2023-07-09T04:18:31;5.83;;;3.70;;
8592;SDS011;4334;49.982;8.398;2023-07-09T04:20:58;8.33;;;4.07;;
8592;SDS011;4334;49.982;8.398;2023-07-09T04:23:24;8.80;;;3.80;;
8592;SDS011;4334;49.982;8.398;2023-07-09T04:25:51;6.53;;;4.03;;
8592;SDS011;4334;49.982;8.398;2023-07-09T04:28:19;7.78;;;3.95;;
8592;SDS011;4334;49.982;8.398;2023-07-09T04:30:46;5.32;;;3.78;;
8592;SDS011;4334;49.982;8.398;2023-07-09T04:33:14;6.07;;;3.47;;
8592;SDS011;4334;49.982;8.398;2023-07-09T04:35:42;3.67;;;2.95;;
8592;SDS011;4334;49.982;8.398;2023-07-09T04:38:09;5.10;;;3.60;;
8592;SDS011;4334;49.982;8.398;2023-07-09T04:40:36;4.00;;;3.17;;
8592;SDS011;4334;49.982;8.398;2023-07-09T04:43:03;4.35;;;2.75;;
8592;SDS011;4334;49.982;8.398;2023-07-09T04:45:31;3.50;;;2.75;;
8592;SDS011;4334;49.982;8.398;2023-07-09T04:47:57;4.07;;;2.72;;
8592;SDS011;4334;49.982;8.398;2023-07-09T04:50:24;3.08;;;2.60;;
8592;SDS011;4334;49.982;8.398;2023-07-09T04:52:51;6.90;;;2.95;;
8592;SDS011;4334;49.982;8.398;2023-07-09T04:55:18;3.95;;;2.17;;
8592;SDS011;4334;49.982;8.398;2023-07-09T04:57:45;5.72;;;2.65;;
8592;SDS011;4334;49.982;8.398;2023-07-09T05:00:13;5.70;;;2.30;;
8592;SDS011;4334;49.982;8.398;2023-07-09T05:02:41;3.22;;;2.53;;
8592;SDS011;4334;49.982;8.398;2023-07-09T05:05:08;2.72;;;2.47;;
8592;SDS011;4334;49.982;8.398;2023-07-09T05:07:37;3.45;;;2.50;;
8592;SDS011;4334;49.982;8.398;2023-07-09T05:10:04;2.40;;;1.90;;
8592;SDS011;4334;49.982;8.398;2023-07-09T05:12:31;3.90;;;2.55;;
8592;SDS011;4334;49.982;8.398;2023-07-09T05:14:58;3.78;;;2.50;;
8592;SDS011;4334;49.982;8.398;2023-07-09T05:17:25;2.92;;;2.60;;
8592;SDS011;4334;49.982;8.398;2023-07-09T05:19:53;3.58;;;2.10;;
8592;SDS011;4334;49.982;8.398;2023-07-09T05:22:20;6.82;;;2.90;;
8592;SDS011;4334;49.982;8.398;2023-07-09T05:24:46;3.65;;;2.63;;
8592;SDS011;4334;49.982;8.398;2023-07-09T05:27:13;4.28;;;2.63;;
8592;SDS011;4334;49.982;8.398;2023-07-09T05:29:40;3.83;;;3.00;;
8592;SDS011;4334;49.982;8.398;2023-07-09T05:32:06;9.82;;;2.72;;
8592;SDS011;4334;49.982;8.398;2023-07-09T05:34:33;4.80;;;3.00;;
8592;SDS011;4334;49.982;8.398;2023-07-09T05:37:02;3.35;;;2.70;;
8592;SDS011;4334;49.982;8.398;2023-07-09T05:39:29;9.35;;;3.17;;
8592;SDS011;4334;49.982;8.398;2023-07-09T05:41:55;5.38;;;2.92;;
8592;SDS011;4334;49.982;8.398;2023-07-09T05:44:22;5.07;;;2.85;;
8592;SDS011;4334;49.982;8.398;2023-07-09T05:46:49;6.20;;;3.00;;
8592;SDS011;4334;49.982;8.398;2023-07-09T05:49:15;6.70;;;3.15;;
8592;SDS011;4334;49.982;8.398;2023-07-09T05:51:42;4.55;;;2.53;;
8592;SDS011;4334;49.982;8.398;2023-07-09T05:54:10;7.35;;;2.67;;
8592;SDS011;4334;49.982;8.398;2023-07-09T05:56:37;3.28;;;2.83;;
8592;SDS011;4334;49.982;8.398;2023-07-09T05:59:04;3.75;;;2.70;;
8592;SDS011;4334;49.982;8.398;2023-07-09T06:01:31;7.32;;;3.13;;
8592;SDS011;4334;49.982;8.398;2023-07-09T06:03:58;4.47;;;2.63;;
8592;SDS011;4334;49.982;8.398;2023-07-09T06:06:25;6.13;;;2.53;;
8592;SDS011;4334;49.982;8.398;2023-07-09T06:08:53;4.88;;;3.00;;
8592;SDS011;4334;49.982;8.398;2023-07-09T06:11:21;3.58;;;2.50;;
8592;SDS011;4334;49.982;8.398;2023-07-09T06:13:48;3.42;;;2.47;;
8592;SDS011;4334;49.982;8.398;2023-07-09T06:16:15;4.57;;;2.70;;
8592;SDS011;4334;49.982;8.398;2023-07-09T06:18:42;8.95;;;2.67;;
8592;SDS011;4334;49.982;8.398;2023-07-09T06:21:09;4.85;;;2.83;;
8592;SDS011;4334;49.982;8.398;2023-07-09T06:23:37;3.10;;;2.40;;
8592;SDS011;4334;49.982;8.398;2023-07-09T06:26:04;8.63;;;2.70;;
8592;SDS011;4334;49.982;8.398;2023-07-09T06:28:32;3.05;;;2.55;;
8592;SDS011;4334;49.982;8.398;2023-07-09T06:30:59;5.25;;;2.83;;
8592;SDS011;4334;49.982;8.398;2023-07-09T06:33:26;2.50;;;2.30;;
8592;SDS011;4334;49.982;8.398;2023-07-09T06:35:54;3.08;;;2.45;;
8592;SDS011;4334;49.982;8.398;2023-07-09T06:38:23;8.05;;;3.17;;
8592;SDS011;4334;49.982;8.398;2023-07-09T06:40:50;3.92;;;2.90;;
8592;SDS011;4334;49.982;8.398;2023-07-09T06:43:17;7.45;;;2.58;;
8592;SDS011;4334;49.982;8.398;2023-07-09T06:45:49;5.32;;;2.47;;
8592;SDS011;4334;49.982;8.398;2023-07-09T06:48:17;11.98;;;2.65;;
8592;SDS011;4334;49.982;8.398;2023-07-09T06:50:45;3.03;;;2.67;;
8592;SDS011;4334;49.982;8.398;2023-07-09T06:53:12;4.07;;;2.90;;
8592;SDS011;4334;49.982;8.398;2023-07-09T06:55:39;4.57;;;2.75;;
8592;SDS011;4334;49.982;8.398;2023-07-09T06:58:05;4.05;;;2.58;;
8592;SDS011;4334;49.982;8.398;2023-07-09T07:00:33;3.13;;;2.75;;
8592;SDS011;4334;49.982;8.398;2023-07-09T07:03:02;3.65;;;2.60;;
8592;SDS011;4334;49.982;8.398;2023-07-09T07:05:29;7.18;;;2.40;;
8592;SDS011;4334;49.982;8.398;2023-07-09T07:07:56;8.18;;;2.35;;
8592;SDS011;4334;49.982;8.398;2023-07-09T07:10:23;4.90;;;2.80;;
8592;SDS011;4334;49.982;8.398;2023-07-09T07:12:51;2.92;;;2.40;;
8592;SDS011;4334;49.982;8.398;2023-07-09T07:15:18;4.75;;;2.40;;
8592;SDS011;4334;49.982;8.398;2023-07-09T07:17:45;3.35;;;2.17;;
8592;SDS011;4334;49.982;8.398;2023-07-09T07:20:13;3.40;;;2.72;;
8592;SDS011;4334;49.982;8.398;2023-07-09T07:22:41;3.42;;;2.38;;
8592;SDS011;4334;49.982;8.398;2023-07-09T07:25:08;3.13;;;2.42;;
8592;SDS011;4334;49.982;8.398;2023-07-09T07:27:36;6.18;;;2.70;;
8592;SDS011;4334;49.982;8.398;2023-07-09T07:30:04;4.25;;;2.60;;
8592;SDS011;4334;49.982;8.398;2023-07-09T07:32:34;5.65;;;2.75;;
8592;SDS011;4334;49.982;8.398;2023-07-09T07:35:01;2.50;;;2.17;;
8592;SDS011;4334;49.982;8.398;2023-07-09T07:37:29;3.67;;;2.38;;
8592;SDS011;4334;49.982;8.398;2023-07-09T07:39:56;2.55;;;2.20;;
8592;SDS011;4334;49.982;8.398;2023-07-09T07:42:23;3.35;;;2.35;;
8592;SDS011;4334;49.982;8.398;2023-07-09T07:44:50;2.38;;;2.17;;
8592;SDS011;4334;49.982;8.398;2023-07-09T07:47:17;4.97;;;2.42;;
8592;SDS011;4334;49.982;8.398;2023-07-09T07:49:44;3.25;;;2.38;;
8592;SDS011;4334;49.982;8.398;2023-07-09T07:52:11;2.95;;;2.25;;
8592;SDS011;4334;49.982;8.398;2023-07-09T07:54:39;3.55;;;2.13;;
8592;SDS011;4334;49.982;8.398;2023-07-09T07:57:07;4.47;;;2.40;;
8592;SDS011;4334;49.982;8.398;2023-07-09T07:59:34;3.40;;;2.33;;
8592;SDS011;4334;49.982;8.398;2023-07-09T08:02:01;7.57;;;2.45;;
8592;SDS011;4334;49.982;8.398;2023-07-09T08:04:28;4.57;;;2.63;;
8592;SDS011;4334;49.982;8.398;2023-07-09T08:06:55;2.70;;;2.20;;
8592;SDS011;4334;49.982;8.398;2023-07-09T08:09:22;5.13;;;2.55;;
8592;SDS011;4334;49.982;8.398;2023-07-09T08:11:50;3.20;;;2.33;;
8592;SDS011;4334;49.982;8.398;2023-07-09T08:14:17;3.13;;;2.05;;
8592;SDS011;4334;49.982;8.398;2023-07-09T08:16:44;2.30;;;2.10;;
8592;SDS011;4334;49.982;8.398;2023-07-09T08:19:10;5.70;;;2.97;;
8592;SDS011;4334;49.982;8.398;2023-07-09T08:21:37;4.18;;;2.60;;
8592;SDS011;4334;49.982;8.398;2023-07-09T08:24:05;6.07;;;2.85;;
8592;SDS011;4334;49.982;8.398;2023-07-09T08:26:32;3.00;;;2.28;;
8592;SDS011;4334;49.982;8.398;2023-07-09T08:29:00;2.45;;;2.25;;
8592;SDS011;4334;49.982;8.398;2023-07-09T08:31:27;2.70;;;2.40;;
8592;SDS011;4334;49.982;8.398;2023-07-09T08:33:54;3.55;;;2.53;;
8592;SDS011;4334;49.982;8.398;2023-07-09T08:36:21;4.90;;;2.50;;
8592;SDS011;4334;49.982;8.398;2023-07-09T08:38:48;4.80;;;2.50;;
8592;SDS011;4334;49.982;8.398;2023-07-09T08:41:18;8.02;;;2.60;;
8592;SDS011;4334;49.982;8.398;2023-07-09T08:43:55;3.45;;;2.92;;
8592;SDS011;4334;49.982;8.398;2023-07-09T08:46:32;4.03;;;2.53;;
8592;SDS011;4334;49.982;8.398;2023-07-09T08:49:08;3.88;;;2.30;;
8592;SDS011;4334;49.982;8.398;2023-07-09T08:51:41;7.60;;;3.00;;
8592;SDS011;4334;49.982;8.398;2023-07-09T08:54:09;3.03;;;2.05;;
8592;SDS011;4334;49.982;8.398;2023-07-09T08:56:41;7.28;;;2.80;;
8592;SDS011;4334;49.982;8.398;2023-07-09T08:59:09;8.88;;;2.67;;
8592;SDS011;4334;49.982;8.398;2023-07-09T09:01:45;4.03;;;2.67;;
8592;SDS011;4334;49.982;8.398;2023-07-09T09:04:18;4.35;;;2.50;;
8592;SDS011;4334;49.982;8.398;2023-07-09T09:06:51;8.63;;;2.90;;
8592;SDS011;4334;49.982;8.398;2023-07-09T09:09:36;3.25;;;2.47;;
8592;SDS011;4334;49.982;8.398;2023-07-09T09:12:09;3.55;;;2.70;;
8592;SDS011;4334;49.982;8.398;2023-07-09T09:14:42;4.55;;;2.50;;
8592;SDS011;4334;49.982;8.398;2023-07-09T09:17:12;3.08;;;2.38;;
8592;SDS011;4334;49.982;8.398;2023-07-09T09:19:44;2.92;;;2.50;;
8592;SDS011;4334;49.982;8.398;2023-07-09T09:22:15;4.10;;;2.50;;
8592;SDS011;4334;49.982;8.398;2023-07-09T09:24:51;3.90;;;2.80;;
8592;SDS011;4334;49.982;8.398;2023-07-09T09:27:23;3.13;;;2.47;;
8592;SDS011;4334;49.982;8.398;2023-07-09T09:29:49;7.45;;;2.80;;
8592;SDS011;4334;49.982;8.398;2023-07-09T09:32:20;4.10;;;2.78;;
8592;SDS011;4334;49.982;8.398;2023-07-09T09:34:51;8.63;;;2.78;;
8592;SDS011;4334;49.982;8.398;2023-07-09T09:37:23;4.13;;;2.72;;
8592;SDS011;4334;49.982;8.398;2023-07-09T09:39:52;4.28;;;2.88;;
8592;SDS011;4334;49.982;8.398;2023-07-09T09:42:19;4.00;;;2.50;;
8592;SDS011;4334;49.982;8.398;2023-07-09T09:44:46;5.50;;;2.88;;
8592;SDS011;4334;49.982;8.398;2023-07-09T09:47:13;4.13;;;2.90;;
8592;SDS011;4334;49.982;8.398;2023-07-09T09:49:44;4.28;;;2.88;;
8592;SDS011;4334;49.982;8.398;2023-07-09T09:52:12;4.25;;;2.88;;
8592;SDS011;4334;49.982;8.398;2023-07-09T09:54:40;3.08;;;2.38;;
8592;SDS011;4334;49.982;8.398;2023-07-09T09:57:14;9.35;;;2.47;;
8592;SDS011;4334;49.982;8.398;2023-07-09T09:59:43;3.08;;;2.75;;
8592;SDS011;4334;49.982;8.398;2023-07-09T10:02:14;7.95;;;2.65;;
8592;SDS011;4334;49.982;8.398;2023-07-09T10:04:45;5.13;;;2.72;;
8592;SDS011;4334;49.982;8.398;2023-07-09T10:07:14;3.45;;;2.92;;
8592;SDS011;4334;49.982;8.398;2023-07-09T10:09:48;4.97;;;2.53;;
8592;SDS011;4334;49.982;8.398;2023-07-09T10:12:19;3.33;;;2.65;;
8592;SDS011;4334;49.982;8.398;2023-07-09T10:14:58;3.13;;;2.15;;
8592;SDS011;4334;49.982;8.398;2023-07-09T10:17:29;2.65;;;2.40;;
8592;SDS011;4334;49.982;8.398;2023-07-09T10:20:05;2.45;;;2.25;;
8592;SDS011;4334;49.982;8.398;2023-07-09T10:22:40;4.30;;;2.50;;
8592;SDS011;4334;49.982;8.398;2023-07-09T10:25:16;5.93;;;3.17;;
8592;SDS011;4334;49.982;8.398;2023-07-09T10:28:00;2.90;;;2.35;;
8592;SDS011;4334;49.982;8.398;2023-07-09T10:30:46;3.72;;;2.58;;
8592;SDS011;4334;49.982;8.398;2023-07-09T10:33:22;4.82;;;2.65;;
8592;SDS011;4334;49.982;8.398;2023-07-09T10:35:56;4.13;;;2.42;;
8592;SDS011;4334;49.982;8.398;2023-07-09T10:38:36;3.42;;;2.85;;
8592;SDS011;4334;49.982;8.398;2023-07-09T10:41:12;3.72;;;2.70;;
8592;SDS011;4334;49.982;8.398;2023-07-09T10:43:45;4.60;;;2.38;;
8592;SDS011;4334;49.982;8.398;2023-07-09T10:46:17;2.67;;;2.40;;
8592;SDS011;4334;49.982;8.398;2023-07-09T10:48:47;5.05;;;2.50;;
8592;SDS011;4334;49.982;8.398;2023-07-09T10:51:21;2.50;;;2.30;;
8592;SDS011;4334;49.982;8.398;2023-07-09T10:53:52;4.80;;;2.30;;
8592;SDS011;4334;49.982;8.398;2023-07-09T10:56:24;6.65;;;2.25;;
8592;SDS011;4334;49.982;8.398;2023-07-09T10:58:55;3.05;;;2.30;;
8592;SDS011;4334;49.982;8.398;2023-07-09T11:01:32;2.85;;;2.15;;
8592;SDS011;4334;49.982;8.398;2023-07-09T11:04:04;3.08;;;2.20;;
8592;SDS011;4334;49.982;8.398;2023-07-09T11:06:37;5.00;;;2.33;;
8592;SDS011;4334;49.982;8.398;2023-07-09T11:09:11;4.38;;;2.53;;
8592;SDS011;4334;49.982;8.398;2023-07-09T11:11:54;2.55;;;2.00;;
8592;SDS011;4334;49.982;8.398;2023-07-09T11:14:25;2.88;;;2.08;;
8592;SDS011;4334;49.982;8.398;2023-07-09T11:16:57;2.28;;;2.00;;
8592;SDS011;4334;49.982;8.398;2023-07-09T11:19:26;2.95;;;2.30;;
8592;SDS011;4334;49.982;8.398;2023-07-09T11:22:02;3.05;;;2.30;;
8592;SDS011;4334;49.982;8.398;2023-07-09T11:24:33;2.40;;;2.10;;
8592;SDS011;4334;49.982;8.398;2023-07-09T11:27:02;3.47;;;1.90;;
8592;SDS011;4334;49.982;8.398;2023-07-09T11:29:45;3.00;;;2.20;;
8592;SDS011;4334;49.982;8.398;2023-07-09T11:32:17;2.35;;;2.03;;
8592;SDS011;4334;49.982;8.398;2023-07-09T11:34:45;5.30;;;2.35;;
8592;SDS011;4334;49.982;8.398;2023-07-09T11:37:14;2.92;;;2.25;;
8592;SDS011;4334;49.982;8.398;2023-07-09T11:39:43;3.40;;;2.22;;
8592;SDS011;4334;49.982;8.398;2023-07-09T11:42:27;6.25;;;2.42;;
8592;SDS011;4334;49.982;8.398;2023-07-09T11:45:04;3.22;;;2.17;;
8592;SDS011;4334;49.982;8.398;2023-07-09T11:47:37;2.42;;;2.10;;
8592;SDS011;4334;49.982;8.398;2023-07-09T11:50:11;6.10;;;2.10;;
8592;SDS011;4334;49.982;8.398;2023-07-09T11:52:49;4.63;;;2.25;;
8592;SDS011;4334;49.982;8.398;2023-07-09T11:55:22;3.45;;;2.13;;
8592;SDS011;4334;49.982;8.398;2023-07-09T11:57:54;2.40;;;2.08;;
8592;SDS011;4334;49.982;8.398;2023-07-09T12:00:21;2.40;;;2.10;;
8592;SDS011;4334;49.982;8.398;2023-07-09T12:02:48;3.70;;;2.38;;
8592;SDS011;4334;49.982;8.398;2023-07-09T12:05:18;2.22;;;1.90;;
8592;SDS011;4334;49.982;8.398;2023-07-09T12:07:48;8.27;;;1.90;;
8592;SDS011;4334;49.982;8.398;2023-07-09T12:10:18;2.92;;;2.22;;
8592;SDS011;4334;49.982;8.398;2023-07-09T12:12:47;2.20;;;2.00;;
8592;SDS011;4334;49.982;8.398;2023-07-09T12:15:16;2.58;;;2.03;;
8592;SDS011;4334;49.982;8.398;2023-07-09T12:17:52;2.25;;;2.05;;
8592;SDS011;4334;49.982;8.398;2023-07-09T12:20:21;3.28;;;2.25;;
8592;SDS011;4334;49.982;8.398;2023-07-09T12:22:49;2.55;;;1.92;;
8592;SDS011;4334;49.982;8.398;2023-07-09T12:25:20;2.97;;;1.98;;
8592;SDS011;4334;49.982;8.398;2023-07-09T12:27:49;2.25;;;2.00;;
8592;SDS011;4334;49.982;8.398;2023-07-09T12:30:17;4.40;;;2.35;;
8592;SDS011;4334;49.982;8.398;2023-07-09T12:32:45;2.38;;;2.05;;
8592;SDS011;4334;49.982;8.398;2023-07-09T12:35:14;4.22;;;2.33;;
8592;SDS011;4334;49.982;8.398;2023-07-09T12:37:42;4.97;;;2.20;;
8592;SDS011;4334;49.982;8.398;2023-07-09T12:40:16;4.65;;;2.20;;
8592;SDS011;4334;49.982;8.398;2023-07-09T12:42:46;2.47;;;2.28;;
8592;SDS011;4334;49.982;8.398;2023-07-09T12:45:14;4.20;;;2.30;;
8592;SDS011;4334;49.982;8.398;2023-07-09T12:47:45;2.67;;;2.17;;
8592;SDS011;4334;49.982;8.398;2023-07-09T12:50:20;2.67;;;2.15;;
8592;SDS011;4334;49.982;8.398;2023-07-09T12:52:55;11.30;;;2.33;;
8592;SDS011;4334;49.982;8.398;2023-07-09T12:55:25;2.30;;;2.05;;
8592;SDS011;4334;49.982;8.398;2023-07-09T12:57:55;3.75;;;2.38;;
8592;SDS011;4334;49.982;8.398;2023-07-09T13:00:23;2.47;;;2.13;;
8592;SDS011;4334;49.982;8.398;2023-07-09T13:02:55;4.57;;;2.28;;
8592;SDS011;4334;49.982;8.398;2023-07-09T13:05:22;3.40;;;2.08;;
8592;SDS011;4334;49.982;8.398;2023-07-09T13:07:51;3.20;;;2.25;;
8592;SDS011;4334;49.982;8.398;2023-07-09T13:10:21;2.85;;;2.20;;
8592;SDS011;4334;49.982;8.398;2023-07-09T13:12:53;2.80;;;2.45;;
8592;SDS011;4334;49.982;8.398;2023-07-09T13:15:23;2.58;;;2.03;;
8592;SDS011;4334;49.982;8.398;2023-07-09T13:17:56;3.35;;;2.22;;
8592;SDS011;4334;49.982;8.398;2023-07-09T13:20:23;3.60;;;2.53;;
8592;SDS011;4334;49.982;8.398;2023-07-09T13:22:50;2.55;;;2.25;;
8592;SDS011;4334;49.982;8.398;2023-07-09T13:25:17;7.88;;;2.28;;
8592;SDS011;4334;49.982;8.398;2023-07-09T13:27:44;2.40;;;2.20;;
8592;SDS011;4334;49.982;8.398;2023-07-09T13:30:13;3.17;;;2.25;;
8592;SDS011;4334;49.982;8.398;2023-07-09T13:32:39;2.80;;;2.33;;
8592;SDS011;4334;49.982;8.398;2023-07-09T13:35:12;2.85;;;2.42;;
8592;SDS011;4334;49.982;8.398;2023-07-09T13:37:41;2.72;;;2.40;;
8592;SDS011;4334;49.982;8.398;2023-07-09T13:40:09;2.15;;;1.95;;
8592;SDS011;4334;49.982;8.398;2023-07-09T13:42:37;2.53;;;2.30;;
8592;SDS011;4334;49.982;8.398;2023-07-09T13:45:09;3.38;;;2.40;;
8592;SDS011;4334;49.982;8.398;2023-07-09T13:47:45;4.15;;;2.13;;
8592;SDS011;4334;49.982;8.398;2023-07-09T13:50:12;2.80;;;2.03;;
8592;SDS011;4334;49.982;8.398;2023-07-09T13:52:41;3.15;;;2.70;;
8592;SDS011;4334;49.982;8.398;2023-07-09T13:55:09;2.83;;;2.30;;
8592;SDS011;4334;49.982;8.398;2023-07-09T13:57:44;3.33;;;2.50;;
8592;SDS011;4334;49.982;8.398;2023-07-09T14:00:11;3.15;;;2.60;;
8592;SDS011;4334;49.982;8.398;2023-07-09T14:02:40;2.78;;;2.58;;
8592;SDS011;4334;49.982;8.398;2023-07-09T14:05:08;6.40;;;2.50;;
8592;SDS011;4334;49.982;8.398;2023-07-09T14:07:37;4.82;;;2.30;;
8592;SDS011;4334;49.982;8.398;2023-07-09T14:10:07;3.55;;;2.53;;
8592;SDS011;4334;49.982;8.398;2023-07-09T14:12:38;2.88;;;2.40;;
8592;SDS011;4334;49.982;8.398;2023-07-09T14:15:11;2.88;;;2.22;;
8592;SDS011;4334;49.982;8.398;2023-07-09T14:17:41;3.22;;;2.38;;
8592;SDS011;4334;49.982;8.398;2023-07-09T14:20:10;3.08;;;2.53;;
8592;SDS011;4334;49.982;8.398;2023-07-09T14:22:37;5.03;;;2.67;;
8592;SDS011;4334;49.982;8.398;2023-07-09T14:25:05;4.13;;;3.53;;
8592;SDS011;4334;49.982;8.398;2023-07-09T14:27:33;5.25;;;2.47;;
8592;SDS011;4334;49.982;8.398;2023-07-09T14:29:59;3.08;;;2.28;;
8592;SDS011;4334;49.982;8.398;2023-07-09T14:32:35;3.15;;;2.30;;
8592;SDS011;4334;49.982;8.398;2023-07-09T14:35:09;3.72;;;2.20;;
8592;SDS011;4334;49.982;8.398;2023-07-09T14:37:38;2.50;;;2.25;;
8592;SDS011;4334;49.982;8.398;2023-07-09T14:40:06;4.05;;;2.20;;
8592;SDS011;4334;49.982;8.398;2023-07-09T14:42:33;3.30;;;2.28;;
8592;SDS011;4334;49.982;8.398;2023-07-09T14:45:00;5.57;;;2.63;;
8592;SDS011;4334;49.982;8.398;2023-07-09T14:47:28;2.63;;;2.00;;
8592;SDS011;4334;49.982;8.398;2023-07-09T14:49:55;3.05;;;2.20;;
8592;SDS011;4334;49.982;8.398;2023-07-09T14:52:23;3.90;;;2.03;;
8592;SDS011;4334;49.982;8.398;2023-07-09T14:54:50;2.63;;;2.03;;
8592;SDS011;4334;49.982;8.398;2023-07-09T14:57:18;3.20;;;2.22;;
8592;SDS011;4334;49.982;8.398;2023-07-09T14:59:46;2.40;;;2.00;;
8592;SDS011;4334;49.982;8.398;2023-07-09T15:02:20;2.63;;;2.22;;
8592;SDS011;4334;49.982;8.398;2023-07-09T15:04:49;3.20;;;2.30;;
8592;SDS011;4334;49.982;8.398;2023-07-09T15:07:16;1.90;;;1.80;;
8592;SDS011;4334;49.982;8.398;2023-07-09T15:09:44;7.30;;;2.25;;
8592;SDS011;4334;49.982;8.398;2023-07-09T15:12:15;4.43;;;2.22;;
8592;SDS011;4334;49.982;8.398;2023-07-09T15:14:43;3.85;;;2.40;;
8592;SDS011;4334;49.982;8.398;2023-07-09T15:17:10;2.58;;;1.98;;
8592;SDS011;4334;49.982;8.398;2023-07-09T15:19:37;2.15;;;1.75;;
8592;SDS011;4334;49.982;8.398;2023-07-09T15:22:04;2.22;;;2.00;;
8592;SDS011;4334;49.982;8.398;2023-07-09T15:24:35;6.50;;;2.30;;
8592;SDS011;4334;49.982;8.398;2023-07-09T15:27:04;3.67;;;2.55;;
8592;SDS011;4334;49.982;8.398;2023-07-09T15:29:31;3.80;;;2.20;;
8592;SDS011;4334;49.982;8.398;2023-07-09T15:31:58;2.30;;;2.10;;
8592;SDS011;4334;49.982;8.398;2023-07-09T15:34:25;3.75;;;2.35;;
8592;SDS011;4334;49.982;8.398;2023-07-09T15:36:52;2.92;;;1.92;;
8592;SDS011;4334;49.982;8.398;2023-07-09T15:39:19;2.92;;;2.00;;
8592;SDS011;4334;49.982;8.398;2023-07-09T15:41:47;3.35;;;2.00;;